Nearby METAR Reports

 

KSJC - San Jose, California, USA
Distance from station: NE 14km
Updated: 2017-11-24 05:53
Mist, Overcast
Mist, Overcast
 Wind from NW
Wind: NW 9 km/h
Temperature: 16°C
Dew Point: 14°C
Humidity: 88%
Barometer: 1019 hPa
Summary: Mist
Clouds: Overcast
Visibility: 6 km
Cloud details: Few Clouds 61 m
Mostly cloudy 152 m
Overcast 274 m
2017/11/24 13:53 KSJC 241353Z 31005KT 4SM BR FEW002 BKN005 OVC009 16/14 A3009 RMK AO2 SLP189 T01560144
KNUQ - Moffett Nas/Mtn, California, USA
Distance from station: N 14km
Updated: 2017-11-24 06:21
Mist, Clear
Mist, Clear
 Wind from calm
Wind: Calm
Temperature: 13°C
Dew Point: 13°C
Humidity: 100%
Barometer: 1019.3 hPa
Summary: Mist
Clouds: Clear
Visibility: 5 km
2017/11/24 14:21 KNUQ 241421Z 00000KT 3/4SM BR CLR 13/13 A3010 RMK AO2 T01330133
 
KPAO - Palo Alto, California, USA
Distance from station: NNW 23km
Updated: 2017-11-23 20:47
NOT Current
Partly cloudy
Partly cloudy
 Wind from calm
Wind: Calm
Temperature: 16°C
Dew Point: 14°C
Humidity: 88%
Barometer: 1019.6 hPa
Clouds: Partly cloudy
Visibility: 16 km
Cloud details: Partly cloudy 3658 m
2017/11/24 04:47 KPAO 240447Z 00000KT 10SM SCT120 16/14 A3011 RMK LAST
KRHV - San Jose/Reid, California, USA
Distance from station: ENE 19km
Updated: 2017-11-23 21:57
NOT Current
Mostly cloudy
Mostly cloudy
 Wind from calm
Wind: Calm
Temperature: 17°C
Dew Point: 14°C
Humidity: 83%
Barometer: 1019 hPa
Clouds: Mostly cloudy
Visibility: 16 km
Cloud details: Mostly cloudy 3048 m
2017/11/24 05:57 KRHV 240557Z 00000KT 10SM BKN100 17/14 A3009 RMK LAST
 
KOAK - Oakland, California, USA
Distance from station: NNW 50km
Updated: 2017-11-24 06:29
Shallow fog, Mist, Few clouds
Shallow fog, Mist, Few clouds
 Wind from calm
Wind: Calm
Temperature: 12°C
Dew Point: 12°C
Humidity: 100%
Barometer: 1019.3 hPa
Summary: Shallow fog, Mist
Clouds: Few Clouds
Visibility: 5 km
Cloud details: Few Clouds 61 m
2017/11/24 14:29 KOAK 241429Z 00000KT 3/4SM MIFG BR FEW002 12/12 A3010 RMK AO2 TWR VIS 10 VIS NW-NE 3 T01220122
KSQL - San Carlos Airpo, California, USA
Distance from station: NW 34km
Updated: 2017-11-24 06:15
Clear
Clear
 Wind from calm
Wind: Calm
Temperature: 14°C
Dew Point: 14°C
Humidity: 100%
Barometer: 1019 hPa
Clouds: Clear
Visibility: 16 km
2017/11/24 14:15 KSQL 241415Z AUTO 00000KT 10SM CLR 14/14 A3009 RMK AO2
 
KSFO - San Francisco, California, USA
Distance from station: NW 49km
Updated: 2017-11-24 05:56
Partly cloudy
Partly cloudy
 Wind from WNW
Wind: WNW 15 km/h
Temperature: 14°C
Dew Point: 13°C
Humidity: 94%
Barometer: 1019 hPa
Clouds: Partly cloudy
Visibility: 11 km
Cloud details: Few Clouds 61 m
Partly cloudy 183 m
Partly cloudy 6096 m
2017/11/24 13:56 KSFO 241356Z 29008KT 7SM FEW002 SCT006 SCT200 14/13 A3009 RMK AO2 SLP187 VIS NW-N 2 T01390128
KE16 - San Martin, California, USA
Distance from station: ESE 43km
Updated: 2017-11-24 06:15
Overcast
Overcast
 Wind from NNW
Wind: NNW 13 km/h
Temperature: 16°C
Dew Point: 14°C
Humidity: 88%
Barometer: 1019.3 hPa
Clouds: Overcast
Visibility: 16 km
Cloud details: Overcast 335 m
2017/11/24 14:15 KE16 241415Z AUTO 33007KT 10SM OVC011 16/14 A3010 RMK AO2 PWINO PNO
 
KWVI - Watsonville, California, USA
Distance from station: SSE 44km
Updated: 2017-11-24 05:53
Clear
Clear
 Wind from NW
Wind: NW 6 km/h
Temperature: 14°C
Dew Point: 14°C
Humidity: 100%
Barometer: 1017.9 hPa
Clouds: Clear
Visibility: 16 km
2017/11/24 13:53 KWVI 241353Z AUTO 32003KT 10SM CLR 14/14 A3006 RMK AO2 SLP180 T01440144 $
KHAF - Half Moon Bay, California, USA
Distance from station: WNW 50km
Updated: 2017-11-24 06:15
Mist, Overcast
Mist, Overcast
 Wind from NNW
Wind: NNW 7 km/h
Temperature: 14°C
Dew Point: 13°C
Humidity: 94%
Barometer: 1018.3 hPa
Summary: Mist
Clouds: Overcast
Visibility: 5 km
Cloud details: Overcast 91 m
2017/11/24 14:15 KHAF 241415Z AUTO 33004KT 3/4SM BR OVC003 14/13 A3007 RMK AO2
 
KHWD - Hayward, California, USA
Distance from station: N 44km
Updated: 2017-11-24 05:54
Few Clouds
Few Clouds
 Wind from calm
Wind: Calm
Temperature: 13°C
Dew Point: 11°C
Humidity: 88%
Barometer: 1019 hPa
Clouds: Few Clouds
Visibility: 14 km
Cloud details: Few Clouds 61 m
2017/11/24 13:54 KHWD 241354Z AUTO 00000KT 9SM FEW002 13/11 A3009 RMK AO2 SLP198 T01330106
KLVK - Livermore, California, USA
Distance from station: NNE 51km
Updated: 2017-11-24 05:53
Mist, Clear
Mist, Clear
 Wind from E
Wind: E 6 km/h
Temperature: 12°C
Dew Point: 12°C
Humidity: 100%
Barometer: 1018.6 hPa
Summary: Mist
Clouds: Clear
Visibility: 6 km
2017/11/24 13:53 KLVK 241353Z AUTO 10003KT 4SM BR CLR 12/12 A3008 RMK AO2 SLP186 T01220122